Airfield :
LOGIN :

Register | Disclaimer

   EN    FR    IT 

 










Legend :    VFR   Marginal VFR   IFR   Intensive IFR   Very Intensive IFR
Visi :
Ceiling :
>= 8 km
>= 3000ft
5 to 8 km
1000 to 3000 ft
1500m to 5 km
500 to 1000 ft
800 to 1500m
200 to 500 ft
< 800m
< 200 ft
Symbols :   Thunderstorms  Fog  Heavy snow  Heavy precipitations  Wind > 20 kt
SIGMETs :     Misc.  Thunderstorms  Icing  Turbulence  Mountain Waves  Volcanic Ashes







- Airport Elevation : 885 ft
- IATA code : BAS
- Download approach charts


LFSB - Bale-Mulhouse

CURRENT METAR :
  • 240800Z 27007KT 220V310 9999 FEW030 BKN046 BKN083 24/15 Q1020 NOSIG

EXPIRED METARs :
  • 240730Z 27007KT 210V310 9999 BKN045 BKN083 23/15 Q1020 NOSIG
  • 240700Z 27007KT 230V310 9999 BKN045 BKN083 22/15 Q1020 NOSIG
  • 240630Z 26006KT 230V290 9999 BKN046 BKN080 22/15 Q1020 NOSIG
  • 240600Z 25008KT 220V280 9999 BKN046 22/15 Q1020 NOSIG
  • 240530Z 25007KT 210V280 9999 BKN046 21/14 Q1020 NOSIG

TAF TAF LFSB
Valid from the 23 at 18:00 until the 24 at 18:00 UTC


231700Z 2318/2418 28008KT CAVOK
PROB40
TEMPO 2320/2324 FEW055TCU
PROB40
TEMPO 2404/2406 FEW060TCU
TEMPO 2412/2416 30010G20KT
Met : +33 3 89 90 31 11
No reported NOTAMs for that airfield.



MET'MAP, your aeronautical weather chart ! - Copyright ORBIFLY December 2007 - Disclaimer

ORBIFLY MET'MAP TEAM :

Programming & Development : Alexandra Zaïnal
Concept & Development : Baudouin d'Aumeries
Co-Development & Prog : Marc-Olivier Méhu
Technical & hardware support : Manuel Goepfert

Contact : metmap@orbifly.com




SOURCES & CREDITS :

   NOAA